createdAt,value
2019-04-26T00:00:45.934Z,16.20
2019-04-26T00:03:16.323Z,16.20
2019-04-26T00:05:45.172Z,16.20
2019-04-26T00:08:13.920Z,16.20
2019-04-26T00:10:47.709Z,16.20
2019-04-26T00:13:18.328Z,16.20
2019-04-26T00:15:51.470Z,16.20
2019-04-26T00:18:20.963Z,16.10
2019-04-26T00:20:49.703Z,16.20
2019-04-26T00:23:18.454Z,16.10
2019-04-26T00:25:47.135Z,16.20
2019-04-26T00:28:16.927Z,16.10
2019-04-26T00:30:45.770Z,16.10
2019-04-26T00:33:15.251Z,16.10
2019-04-26T00:35:47.583Z,16.10
2019-04-26T00:38:14.381Z,16.00
2019-04-26T00:40:44.727Z,16.00
2019-04-26T00:43:14.294Z,16.10
2019-04-26T00:45:43.706Z,16.00
2019-04-26T00:48:15.340Z,16.00
2019-04-26T00:50:44.685Z,16.00
2019-04-26T00:53:16.000Z,15.90
2019-04-26T00:55:45.090Z,15.80
2019-04-26T00:58:16.293Z,15.80
2019-04-26T01:00:45.156Z,15.70
2019-04-26T01:03:15.146Z,15.70
2019-04-26T01:05:44.130Z,15.70
2019-04-26T01:08:12.944Z,15.70
2019-04-26T01:10:41.621Z,15.70
2019-04-26T01:13:10.441Z,15.70
2019-04-26T01:15:39.125Z,15.70
2019-04-26T01:18:07.879Z,15.70
2019-04-26T01:20:37.695Z,15.60
2019-04-26T01:23:08.741Z,15.60
2019-04-26T01:26:02.921Z,15.60
2019-04-26T01:28:40.198Z,15.60
2019-04-26T01:31:09.161Z,15.60
2019-04-26T01:33:38.697Z,15.60
2019-04-26T01:36:13.089Z,15.60
2019-04-26T01:38:37.518Z,15.50
2019-04-26T01:41:08.507Z,15.50
2019-04-26T01:43:44.747Z,15.50
2019-04-26T01:46:36.178Z,15.50
2019-04-26T01:49:08.006Z,15.50
2019-04-26T01:51:39.676Z,15.50
2019-04-26T01:54:11.199Z,15.50
2019-04-26T01:56:40.041Z,15.50
2019-04-26T01:59:11.860Z,15.40
2019-04-26T02:01:54.072Z,15.40
2019-04-26T02:04:25.700Z,15.40
2019-04-26T02:06:54.385Z,15.30
2019-04-26T02:09:24.292Z,15.30
2019-04-26T02:11:53.021Z,15.30
2019-04-26T02:14:22.654Z,15.20
2019-04-26T02:16:52.266Z,15.20
2019-04-26T02:19:21.514Z,15.20
2019-04-26T02:21:52.005Z,15.10
2019-04-26T02:24:28.253Z,15.10
2019-04-26T02:26:57.499Z,15.10
2019-04-26T02:29:26.951Z,15.00
2019-04-26T02:31:58.712Z,15.00
2019-04-26T02:34:30.810Z,14.90
2019-04-26T02:37:02.114Z,14.90
2019-04-26T02:39:35.328Z,14.90
2019-04-26T02:42:07.137Z,14.80
2019-04-26T02:44:39.310Z,14.80
2019-04-26T02:47:34.661Z,14.80
2019-04-26T02:50:07.421Z,14.80
2019-04-26T02:52:58.517Z,14.70
2019-04-26T02:56:03.107Z,14.70
2019-04-26T02:58:35.987Z,14.70
2019-04-26T03:01:05.282Z,14.60
2019-04-26T03:03:35.649Z,14.60
2019-04-26T03:06:04.417Z,14.50
2019-04-26T03:08:37.169Z,14.60
2019-04-26T03:11:09.165Z,14.60
2019-04-26T03:13:43.692Z,14.60
2019-04-26T03:16:23.110Z,14.60
2019-04-26T03:18:58.942Z,14.50
2019-04-26T03:21:39.403Z,14.50
2019-04-26T03:24:23.093Z,14.60
2019-04-26T03:27:15.761Z,14.50
2019-04-26T03:30:19.684Z,14.50
2019-04-26T03:32:50.420Z,14.50
2019-04-26T03:35:25.563Z,14.50
2019-04-26T03:38:13.469Z,14.50
2019-04-26T03:40:58.316Z,14.60
2019-04-26T03:43:36.985Z,14.60
2019-04-26T03:46:14.842Z,14.60
2019-04-26T03:48:58.478Z,14.70
2019-04-26T03:51:49.656Z,14.70
2019-04-26T03:54:19.081Z,14.70
2019-04-26T03:56:52.412Z,14.80
2019-04-26T03:59:44.219Z,14.80
2019-04-26T04:02:18.257Z,14.80
2019-04-26T04:04:54.379Z,14.90
2019-04-26T04:07:36.993Z,14.90
2019-04-26T04:10:19.637Z,14.90
2019-04-26T04:13:00.030Z,15.00
2019-04-26T04:15:44.875Z,15.00
2019-04-26T04:18:29.257Z,15.00
2019-04-26T04:21:20.234Z,15.10
2019-04-26T04:23:51.921Z,15.20
2019-04-26T04:26:49.168Z,15.20
2019-04-26T04:29:42.827Z,15.10
2019-04-26T04:32:28.530Z,15.20
2019-04-26T04:35:00.209Z,15.30
2019-04-26T04:37:31.894Z,15.30
2019-04-26T04:40:20.089Z,15.40
2019-04-26T04:43:20.063Z,15.50
2019-04-26T04:46:08.240Z,15.40
2019-04-26T04:48:51.140Z,15.50
2019-04-26T04:51:38.850Z,15.60
2019-04-26T04:54:38.916Z,15.60
2019-04-26T04:57:13.588Z,15.60
2019-04-26T04:59:46.107Z,15.80
2019-04-26T05:02:19.497Z,15.90
2019-04-26T05:05:09.134Z,16.00
2019-04-26T05:07:47.293Z,16.30
2019-04-26T05:10:24.961Z,16.60
2019-04-26T05:13:02.317Z,17.10
2019-04-26T05:16:21.797Z,17.50
2019-04-26T05:18:56.411Z,17.80
2019-04-26T05:21:47.118Z,18.10
2019-04-26T05:24:39.634Z,18.30
2019-04-26T05:27:18.761Z,18.70
2019-04-26T05:29:57.925Z,18.70
2019-04-26T05:32:38.300Z,18.80
2019-04-26T05:35:35.052Z,18.80
2019-04-26T05:38:18.872Z,18.70
2019-04-26T05:41:11.570Z,18.70
2019-04-26T05:43:56.218Z,18.90
2019-04-26T05:46:55.765Z,19.30
2019-04-26T05:49:55.904Z,19.30
2019-04-26T05:52:47.323Z,19.60
2019-04-26T05:55:41.276Z,19.60
2019-04-26T05:58:32.083Z,19.70
2019-04-26T06:01:20.229Z,19.80
2019-04-26T06:04:27.597Z,19.70
2019-04-26T06:07:03.649Z,19.90
2019-04-26T06:10:04.953Z,20.00
2019-04-26T06:13:02.911Z,20.00
2019-04-26T06:15:47.325Z,20.10
2019-04-26T06:18:23.591Z,20.20
2019-04-26T06:21:02.058Z,20.20
2019-04-26T06:23:52.901Z,20.50
2019-04-26T06:26:54.252Z,20.60
2019-04-26T06:29:26.336Z,20.80
2019-04-26T06:32:17.206Z,21.00
2019-04-26T06:34:46.623Z,21.50
2019-04-26T06:37:19.958Z,21.30
2019-04-26T06:39:51.636Z,21.30
2019-04-26T06:42:38.313Z,21.10
2019-04-26T06:45:17.400Z,21.10
2019-04-26T06:48:06.045Z,21.30
2019-04-26T06:50:49.393Z,21.30
2019-04-26T06:53:46.338Z,21.30
2019-04-26T06:56:34.429Z,21.60
2019-04-26T06:59:17.089Z,21.80
2019-04-26T07:01:51.269Z,22.30
2019-04-26T07:04:34.672Z,22.00
2019-04-26T07:07:18.302Z,21.90
2019-04-26T07:10:02.530Z,21.70
2019-04-26T07:12:36.965Z,22.20
2019-04-26T07:15:29.021Z,22.30
2019-04-26T07:18:04.383Z,22.60
2019-04-26T07:20:37.733Z,22.80
2019-04-26T07:23:37.724Z,22.80
2019-04-26T07:26:27.403Z,22.80
2019-04-26T07:29:09.148Z,22.60
2019-04-26T07:32:08.049Z,22.60
2019-04-26T07:34:44.033Z,22.40
2019-04-26T07:37:48.450Z,22.10
2019-04-26T07:41:09.773Z,21.80
2019-04-26T07:43:59.573Z,21.70
2019-04-26T07:46:36.817Z,21.50
2019-04-26T07:49:12.419Z,21.40
2019-04-26T07:52:18.850Z,21.40
2019-04-26T07:54:59.436Z,21.30
2019-04-26T07:57:42.849Z,21.20
2019-04-26T08:00:44.321Z,21.30
2019-04-26T08:03:22.738Z,21.40
2019-04-26T08:06:07.374Z,21.60
2019-04-26T08:08:48.170Z,21.80
2019-04-26T08:11:25.264Z,21.90
2019-04-26T08:14:06.234Z,22.10
2019-04-26T08:16:55.293Z,22.00
2019-04-26T08:19:26.681Z,22.10
2019-04-26T08:22:11.615Z,22.10
2019-04-26T08:24:30.057Z,22.20
2019-04-26T08:27:18.673Z,22.40
2019-04-26T08:29:43.908Z,22.50
2019-04-26T08:32:17.221Z,22.60
2019-04-26T08:34:49.292Z,22.70
2019-04-26T08:37:28.471Z,22.80
2019-04-26T08:39:58.705Z,22.70
2019-04-26T08:42:35.512Z,22.70
2019-04-26T08:45:25.645Z,22.70
2019-04-26T08:48:15.196Z,22.70
2019-04-26T08:50:47.049Z,22.80
2019-04-26T08:53:17.699Z,22.80
2019-04-26T08:55:48.143Z,22.90
2019-04-26T08:58:19.829Z,22.90
2019-04-26T09:00:57.912Z,23.20
2019-04-26T09:03:39.959Z,23.30
2019-04-26T09:06:15.613Z,23.40
2019-04-26T09:08:47.301Z,23.40
2019-04-26T09:11:25.846Z,23.40
2019-04-26T09:13:51.120Z,23.40
2019-04-26T09:16:20.944Z,23.40
2019-04-26T09:18:54.387Z,23.40
2019-04-26T09:21:22.009Z,23.40
2019-04-26T09:24:01.634Z,23.40
2019-04-26T09:26:48.519Z,23.40
2019-04-26T09:29:30.291Z,23.40
2019-04-26T09:31:59.613Z,23.40
2019-04-26T09:34:32.489Z,23.50
2019-04-26T09:37:01.233Z,23.60
2019-04-26T09:39:30.180Z,23.70
2019-04-26T09:42:01.239Z,23.70
2019-04-26T09:44:32.596Z,23.80
2019-04-26T09:47:02.977Z,23.90
2019-04-26T09:49:41.143Z,24.10
2019-04-26T09:52:10.815Z,24.10
2019-04-26T09:54:39.488Z,24.20
2019-04-26T09:57:08.301Z,24.30
2019-04-26T09:59:40.094Z,24.40
2019-04-26T10:02:08.517Z,24.40
2019-04-26T10:04:37.265Z,24.60
2019-04-26T10:07:06.025Z,24.50
2019-04-26T10:09:34.701Z,24.60
2019-04-26T10:12:21.066Z,24.80
2019-04-26T10:14:51.445Z,24.90
2019-04-26T10:17:21.766Z,24.80
2019-04-26T10:19:52.135Z,24.80
2019-04-26T10:22:22.772Z,24.60
2019-04-26T10:24:51.520Z,24.50
2019-04-26T10:27:20.188Z,24.50
2019-04-26T10:29:48.965Z,24.40
2019-04-26T10:32:21.811Z,24.50
2019-04-26T10:34:48.944Z,24.60
2019-04-26T10:37:17.717Z,24.80
2019-04-26T10:39:46.395Z,24.90
2019-04-26T10:42:15.532Z,24.90
2019-04-26T10:44:44.281Z,24.80
2019-04-26T10:47:15.623Z,24.60
2019-04-26T10:49:44.927Z,24.30
2019-04-26T10:52:17.109Z,24.40
2019-04-26T10:55:02.642Z,24.40
2019-04-26T10:57:33.121Z,24.40
2019-04-26T11:00:03.513Z,24.40
2019-04-26T11:02:32.357Z,24.40
2019-04-26T11:05:01.105Z,24.70
2019-04-26T11:07:29.849Z,24.70
2019-04-26T11:09:58.598Z,24.70
2019-04-26T11:12:27.344Z,24.70
2019-04-26T11:14:56.930Z,24.70
2019-04-26T11:17:26.333Z,24.80
2019-04-26T11:19:55.088Z,24.80
2019-04-26T11:22:29.182Z,24.80
2019-04-26T11:24:55.016Z,24.80
2019-04-26T11:27:23.806Z,24.80
2019-04-26T11:29:53.988Z,25.00
2019-04-26T11:32:22.943Z,24.90
2019-04-26T11:34:54.536Z,24.80
2019-04-26T11:37:22.019Z,24.90
2019-04-26T11:39:50.727Z,24.80
2019-04-26T11:42:19.374Z,24.80
2019-04-26T11:44:48.134Z,24.90
2019-04-26T11:47:16.726Z,24.90
2019-04-26T11:49:45.461Z,24.90
2019-04-26T11:52:14.156Z,24.90
2019-04-26T11:54:42.842Z,24.70
2019-04-26T11:57:12.131Z,24.70
2019-04-26T11:59:41.900Z,24.60
2019-04-26T12:02:12.201Z,24.60
2019-04-26T12:04:42.572Z,24.80
2019-04-26T12:07:18.809Z,24.80
2019-04-26T12:09:49.126Z,24.80
2019-04-26T12:12:17.818Z,24.90
2019-04-26T12:14:46.561Z,25.10
2019-04-26T12:17:15.245Z,24.90
2019-04-26T12:19:44.004Z,24.60
2019-04-26T12:22:12.747Z,24.10
2019-04-26T12:24:41.561Z,23.70
2019-04-26T12:27:10.677Z,23.40
2019-04-26T12:29:39.486Z,23.20
2019-04-26T12:32:08.161Z,23.20
2019-04-26T12:34:36.828Z,23.20
2019-04-26T12:37:05.579Z,23.00
2019-04-26T12:39:36.583Z,22.70
2019-04-26T12:42:08.137Z,22.40
2019-04-26T12:44:41.069Z,22.00
2019-04-26T12:47:21.095Z,21.60
2019-04-26T12:49:50.061Z,21.30
2019-04-26T12:52:21.625Z,21.10
2019-04-26T12:54:49.125Z,21.00
2019-04-26T12:57:17.882Z,20.90
2019-04-26T12:59:46.557Z,20.80
2019-04-26T13:02:16.564Z,20.80
2019-04-26T13:04:45.766Z,20.80
2019-04-26T13:07:23.667Z,20.60
2019-04-26T13:10:06.978Z,20.60
2019-04-26T13:12:53.618Z,20.50
2019-04-26T13:15:50.685Z,20.30
2019-04-26T13:18:20.569Z,20.10
2019-04-26T13:20:49.312Z,19.80
2019-04-26T13:23:17.997Z,19.70
2019-04-26T13:25:46.672Z,19.70
2019-04-26T13:28:15.665Z,19.70
2019-04-26T13:30:45.749Z,19.80
2019-04-26T13:33:14.498Z,19.70
2019-04-26T13:35:46.562Z,19.70
2019-04-26T13:38:13.571Z,19.70
2019-04-26T13:40:42.258Z,19.80
2019-04-26T13:43:10.932Z,19.90
2019-04-26T13:45:41.331Z,20.00
2019-04-26T13:48:27.650Z,20.10
2019-04-26T13:51:05.658Z,20.30
2019-04-26T13:53:34.414Z,20.40
2019-04-26T13:56:03.510Z,20.50
2019-04-26T13:58:32.245Z,20.50
2019-04-26T14:01:01.975Z,20.60
2019-04-26T14:03:31.602Z,20.70
2019-04-26T14:06:01.117Z,20.80
2019-04-26T14:08:29.790Z,20.90
2019-04-26T14:10:58.536Z,20.90
2019-04-26T14:13:27.285Z,21.00
2019-04-26T14:15:56.013Z,21.00
2019-04-26T14:18:24.824Z,21.10
2019-04-26T14:20:54.740Z,21.10
2019-04-26T14:23:34.346Z,21.20
2019-04-26T14:26:07.673Z,21.20
2019-04-26T14:28:36.427Z,21.20
2019-04-26T14:31:05.443Z,21.30
2019-04-26T14:33:34.210Z,21.30
2019-04-26T14:36:02.958Z,21.40
2019-04-26T14:38:39.356Z,21.40
2019-04-26T14:41:04.026Z,21.40
2019-04-26T14:43:40.385Z,21.50
2019-04-26T14:46:02.862Z,21.40
2019-04-26T14:48:36.093Z,21.50
2019-04-26T14:51:08.331Z,21.50
2019-04-26T14:53:36.269Z,21.60
2019-04-26T14:56:02.741Z,21.50
2019-04-26T14:58:33.607Z,21.60
2019-04-26T15:01:03.569Z,21.50
2019-04-26T15:03:34.099Z,21.60
2019-04-26T15:06:22.200Z,21.50
2019-04-26T15:08:52.965Z,21.50
2019-04-26T15:11:22.937Z,21.50
2019-04-26T15:13:51.762Z,21.50
2019-04-26T15:16:22.154Z,21.40
2019-04-26T15:18:52.465Z,21.40
2019-04-26T15:21:22.731Z,21.30
2019-04-26T15:23:55.279Z,21.30
2019-04-26T15:26:24.398Z,21.30
2019-04-26T15:28:52.154Z,21.20
2019-04-26T15:31:21.729Z,21.20
2019-04-26T15:33:52.796Z,21.10
2019-04-26T15:36:23.131Z,21.10
2019-04-26T15:38:52.873Z,21.10
2019-04-26T15:41:39.082Z,21.00
2019-04-26T15:44:28.205Z,21.00
2019-04-26T15:47:13.139Z,21.00
2019-04-26T15:49:49.245Z,20.90
2019-04-26T15:52:17.917Z,20.80
2019-04-26T15:54:46.661Z,20.70
2019-04-26T15:57:15.341Z,20.60
2019-04-26T15:59:44.165Z,20.50
2019-04-26T16:02:12.914Z,20.50
2019-04-26T16:04:42.458Z,20.40
2019-04-26T16:07:16.176Z,20.30
2019-04-26T16:09:43.193Z,20.20
2019-04-26T16:12:13.411Z,20.00
2019-04-26T16:14:42.319Z,20.00
2019-04-26T16:17:12.358Z,19.90
2019-04-26T16:19:41.210Z,19.80
2019-04-26T16:22:09.889Z,19.80
2019-04-26T16:24:38.638Z,20.00
2019-04-26T16:27:07.393Z,20.10
2019-04-26T16:29:37.774Z,20.20
2019-04-26T16:32:08.156Z,20.20
2019-04-26T16:34:42.937Z,20.30
2019-04-26T16:37:09.923Z,20.30
2019-04-26T16:39:40.049Z,20.30
2019-04-26T16:42:08.934Z,20.30
2019-04-26T16:44:37.608Z,20.30
2019-04-26T16:47:06.366Z,20.30
2019-04-26T16:49:41.636Z,20.30
2019-04-26T16:52:07.038Z,20.30
2019-04-26T16:54:35.869Z,20.20
2019-04-26T16:57:06.372Z,20.20
2019-04-26T16:59:35.019Z,20.20
2019-04-26T17:02:03.874Z,20.20
2019-04-26T17:04:36.222Z,20.00
2019-04-26T17:07:05.079Z,20.00
2019-04-26T17:09:54.454Z,20.00
2019-04-26T17:12:04.045Z,20.00
2019-04-26T17:14:34.141Z,20.00
2019-04-26T17:17:03.285Z,20.00
2019-04-26T17:19:35.841Z,19.80
2019-04-26T17:22:09.856Z,19.70
2019-04-26T17:24:53.382Z,19.60
2019-04-26T17:27:23.978Z,19.50
2019-04-26T17:29:52.907Z,19.40
2019-04-26T17:32:23.214Z,19.40
2019-04-26T17:34:54.304Z,19.30
2019-04-26T17:37:26.469Z,19.20
2019-04-26T17:39:55.404Z,19.20
2019-04-26T17:42:25.127Z,19.10
2019-04-26T17:44:53.204Z,19.00
2019-04-26T17:47:21.946Z,19.00
2019-04-26T17:49:52.439Z,18.90
2019-04-26T17:52:20.954Z,18.80
2019-04-26T17:54:51.827Z,18.70
2019-04-26T17:57:32.111Z,18.70
2019-04-26T17:59:51.525Z,18.70
2019-04-26T18:02:38.738Z,18.60
2019-04-26T18:04:58.916Z,18.50
2019-04-26T18:07:40.187Z,18.60
2019-04-26T18:09:52.531Z,18.70
2019-04-26T18:12:21.350Z,18.90
2019-04-26T18:14:50.106Z,19.00
2019-04-26T18:17:26.241Z,19.00
2019-04-26T18:19:56.552Z,19.10
2019-04-26T18:22:28.418Z,19.10
2019-04-26T18:24:57.131Z,19.00
2019-04-26T18:27:25.823Z,19.00
2019-04-26T18:29:54.499Z,18.90
2019-04-26T18:32:24.460Z,18.90
2019-04-26T18:34:53.676Z,18.90
2019-04-26T18:37:23.116Z,18.90
2019-04-26T18:39:53.365Z,18.90
2019-04-26T18:42:22.111Z,18.90
2019-04-26T18:44:50.793Z,18.80
2019-04-26T18:47:25.651Z,18.80
2019-04-26T18:49:57.778Z,18.70
2019-04-26T18:52:23.403Z,18.70
2019-04-26T18:54:58.294Z,18.60
2019-04-26T18:57:27.144Z,18.60
2019-04-26T18:59:55.833Z,18.60
2019-04-26T19:02:26.183Z,18.60
2019-04-26T19:04:54.934Z,18.50
2019-04-26T19:07:31.835Z,18.50
2019-04-26T19:10:00.729Z,18.40
2019-04-26T19:12:26.967Z,18.40
2019-04-26T19:15:14.432Z,18.40
2019-04-26T19:17:47.347Z,18.30
2019-04-26T19:20:23.793Z,18.20
2019-04-26T19:22:57.279Z,18.20
2019-04-26T19:25:29.844Z,18.20
2019-04-26T19:27:58.904Z,18.10
2019-04-26T19:30:27.110Z,18.10
2019-04-26T19:32:55.775Z,18.10
2019-04-26T19:35:24.446Z,18.00
2019-04-26T19:37:53.183Z,17.90
2019-04-26T19:40:27.314Z,18.00
2019-04-26T19:42:57.495Z,17.90
2019-04-26T19:45:39.582Z,17.90
2019-04-26T19:48:12.447Z,17.90
2019-04-26T19:50:48.668Z,17.80
2019-04-26T19:53:22.987Z,17.80
2019-04-26T19:55:58.172Z,17.70
2019-04-26T19:58:32.133Z,17.70
2019-04-26T20:01:01.943Z,17.70
2019-04-26T20:03:32.079Z,17.60
2019-04-26T20:06:01.654Z,17.60
2019-04-26T20:08:30.345Z,17.70
2019-04-26T20:10:59.019Z,17.60
2019-04-26T20:13:27.743Z,17.60
2019-04-26T20:15:57.427Z,17.50
2019-04-26T20:18:26.773Z,17.50
2019-04-26T20:20:55.458Z,17.50
2019-04-26T20:23:24.218Z,17.40
2019-04-26T20:25:53.112Z,17.40
2019-04-26T20:28:22.773Z,17.40
2019-04-26T20:30:57.975Z,17.40
2019-04-26T20:33:30.804Z,17.30
2019-04-26T20:35:57.522Z,17.20
2019-04-26T20:38:27.453Z,17.20
2019-04-26T20:40:56.068Z,17.10
2019-04-26T20:43:26.640Z,17.10
2019-04-26T20:46:11.054Z,17.10
2019-04-26T20:48:29.685Z,17.00
2019-04-26T20:50:55.934Z,17.00
2019-04-26T20:53:24.681Z,16.90
2019-04-26T20:55:53.430Z,16.90
2019-04-26T20:58:22.122Z,16.90
2019-04-26T21:00:54.643Z,16.80
2019-04-26T21:03:26.043Z,16.70
2019-04-26T21:05:58.792Z,16.70
2019-04-26T21:08:25.767Z,16.70
2019-04-26T21:10:56.075Z,16.60
2019-04-26T21:13:23.745Z,16.60
2019-04-26T21:15:58.302Z,16.50
2019-04-26T21:18:23.432Z,16.50
2019-04-26T21:20:52.257Z,16.50
2019-04-26T21:23:22.253Z,16.50
2019-04-26T21:25:55.458Z,16.50
2019-04-26T21:28:38.059Z,16.40
2019-04-26T21:31:22.712Z,16.50
2019-04-26T21:34:07.967Z,16.40
2019-04-26T21:36:53.360Z,16.40
2019-04-26T21:39:23.593Z,16.30
2019-04-26T21:41:53.909Z,16.30
2019-04-26T21:44:22.588Z,16.30
2019-04-26T21:46:56.193Z,16.30
2019-04-26T21:49:22.200Z,16.20
2019-04-26T21:51:54.105Z,16.20
2019-04-26T21:54:24.950Z,16.20
2019-04-26T21:56:53.728Z,16.20
2019-04-26T21:59:24.276Z,16.10
2019-04-26T22:01:58.835Z,16.10
2019-04-26T22:04:24.470Z,16.00
2019-04-26T22:06:53.429Z,16.00
2019-04-26T22:09:37.244Z,15.90
2019-04-26T22:12:07.558Z,15.90
2019-04-26T22:14:37.950Z,15.90
2019-04-26T22:17:14.342Z,15.90
2019-04-26T22:20:04.542Z,15.80
2019-04-26T22:22:44.526Z,15.80
2019-04-26T22:25:14.244Z,15.80
2019-04-26T22:27:43.711Z,15.80
2019-04-26T22:30:14.200Z,15.80
2019-04-26T22:32:42.883Z,15.70
2019-04-26T22:35:13.473Z,15.80
2019-04-26T22:37:45.560Z,15.70
2019-04-26T22:40:17.026Z,15.70
2019-04-26T22:42:44.477Z,15.60
2019-04-26T22:45:14.984Z,15.60
2019-04-26T22:47:45.357Z,15.60
2019-04-26T22:50:21.010Z,15.60
2019-04-26T22:52:51.119Z,15.50
2019-04-26T22:55:17.668Z,15.50
2019-04-26T22:57:45.306Z,15.50
2019-04-26T23:00:15.559Z,15.50
2019-04-26T23:02:45.734Z,15.50
2019-04-26T23:05:14.618Z,15.40
2019-04-26T23:07:43.299Z,15.40
2019-04-26T23:10:13.019Z,15.40
2019-04-26T23:13:07.421Z,15.40
2019-04-26T23:15:43.307Z,15.40
2019-04-26T23:18:16.381Z,15.30
2019-04-26T23:20:58.263Z,15.30
2019-04-26T23:23:27.001Z,15.20
2019-04-26T23:25:55.683Z,15.20
2019-04-26T23:28:27.640Z,15.10
2019-04-26T23:30:54.834Z,15.10
2019-04-26T23:33:23.922Z,15.00
2019-04-26T23:35:53.008Z,14.90
2019-04-26T23:38:23.419Z,14.90
2019-04-26T23:40:52.284Z,14.80
2019-04-26T23:43:24.015Z,14.80
2019-04-26T23:45:52.761Z,14.80
2019-04-26T23:48:22.314Z,14.80
2019-04-26T23:50:50.988Z,14.80
2019-04-26T23:53:20.517Z,14.80
2019-04-26T23:55:50.083Z,14.70
2019-04-26T23:58:18.763Z,14.70
